aviador You're here:

KGXY Decoded Metar

GREELEY/WELD in CO, USA
Report Time2017-06-27 03:56:00
UTC Time2017-06-27 05:18:20
Flight Rules Old
Wind110° at 14 kt
W.Decomp.*RWY 09: 13.8 kt HW 2.2 kt RCW
RWY 16: 6.8 kt HW 12.2 kt LCW
W.Rank110° ranks 4
Current wind is above 110° avg. (7.1)
Visibility9999 m
Phenomena:N/A
Clouds:N/A
Expected CloudBase > 3,200 ft AGL from Temp-Dew spread
CeilingNone
Temp22°C (ISA +16)
Dew Point14°C (61% RH)
AAT18.3°C
QNH1020 hPa
Density Alt6,526 ft
Elevation4,659 ft
Report Wrong Elevation
Raw Report
METAR KGXY 270356Z AUTO 11014KT 10SM CLR 22/14 A3011 RMK AO2 SLP156
T02220139 TSNO=

Extra information for KGXY:More info

Metar Taf Metar & Taf Last 4 Metars F.Rules Stats Wind Profile Meteogram Temp Stats Airport Information Weather charts Add Link Nearby VenuesMetar ALERT Operation Metar Decoded Social comments

AIRNAV info for KGXY